createdAt,value
2019-04-28T00:04:34.154Z,68.90
2019-04-28T00:09:41.359Z,68.80
2019-04-28T00:14:46.767Z,68.80
2019-04-28T00:19:54.182Z,68.70
2019-04-28T00:25:04.299Z,68.70
2019-04-28T00:30:11.758Z,68.80
2019-04-28T00:35:17.381Z,68.90
2019-04-28T00:40:22.833Z,68.90
2019-04-28T00:45:28.335Z,69.00
2019-04-28T00:50:33.872Z,69.20
2019-04-28T00:55:39.272Z,69.20
2019-04-28T01:00:46.519Z,69.30
2019-04-28T01:05:52.085Z,69.30
2019-04-28T01:10:57.572Z,69.30
2019-04-28T01:16:19.394Z,69.30
2019-04-28T01:21:30.010Z,69.20
2019-04-28T01:26:35.495Z,69.40
2019-04-28T01:31:49.407Z,69.40
2019-04-28T01:36:54.970Z,69.40
2019-04-28T01:42:00.444Z,69.40
2019-04-28T01:47:05.939Z,69.40
2019-04-28T01:52:11.375Z,69.50
2019-04-28T01:57:16.841Z,69.60
2019-04-28T02:02:22.311Z,69.50
2019-04-28T02:07:27.791Z,69.50
2019-04-28T02:12:33.426Z,69.40
2019-04-28T02:17:40.180Z,69.40
2019-04-28T02:22:57.070Z,69.50
2019-04-28T02:28:02.528Z,69.40
2019-04-28T02:33:07.977Z,69.50
2019-04-28T02:38:13.378Z,69.50
2019-04-28T02:43:20.942Z,69.50
2019-04-28T02:48:27.303Z,69.60
2019-04-28T02:53:35.427Z,69.90
2019-04-28T02:58:41.688Z,69.90
2019-04-28T03:03:47.313Z,69.90
2019-04-28T03:08:52.884Z,70.00
2019-04-28T03:14:00.777Z,70.00
2019-04-28T03:19:05.484Z,70.00
2019-04-28T03:24:13.349Z,70.00
2019-04-28T03:29:26.677Z,70.10
2019-04-28T03:34:53.043Z,70.10
2019-04-28T03:39:55.814Z,70.10
2019-04-28T03:45:02.888Z,70.20
2019-04-28T03:50:10.486Z,70.20
2019-04-28T03:55:15.643Z,70.20
2019-04-28T04:00:21.981Z,70.20
2019-04-28T04:05:30.432Z,70.30
2019-04-28T04:10:43.998Z,70.40
2019-04-28T04:16:07.147Z,70.50
2019-04-28T04:21:13.067Z,70.50
2019-04-28T04:26:21.014Z,70.60
2019-04-28T04:31:25.803Z,70.80
2019-04-28T04:36:31.388Z,70.70
2019-04-28T04:41:36.932Z,70.80
2019-04-28T04:46:42.446Z,70.60
2019-04-28T04:51:50.680Z,70.60
2019-04-28T04:56:55.126Z,70.50
2019-04-28T05:02:29.613Z,70.40
2019-04-28T05:07:32.757Z,70.20
2019-04-28T05:12:38.228Z,70.00
2019-04-28T05:17:43.669Z,69.90
2019-04-28T05:23:00.272Z,69.60
2019-04-28T05:28:05.982Z,69.60
2019-04-28T05:33:13.703Z,69.50
2019-04-28T05:38:20.144Z,69.40
2019-04-28T05:43:25.714Z,69.40
2019-04-28T05:48:52.970Z,69.10
2019-04-28T05:54:06.666Z,68.90
2019-04-28T05:59:16.576Z,68.60
2019-04-28T06:04:25.360Z,68.50
2019-04-28T06:09:39.741Z,67.80
2019-04-28T06:14:45.070Z,67.20
2019-04-28T06:19:50.581Z,66.80
2019-04-28T06:24:56.038Z,66.50
2019-04-28T06:30:01.487Z,66.20
2019-04-28T06:35:07.121Z,65.90
2019-04-28T06:40:12.596Z,65.30
2019-04-28T06:45:18.035Z,64.70
2019-04-28T06:50:23.484Z,64.20
2019-04-28T06:55:28.920Z,63.50
2019-04-28T07:00:34.530Z,62.40
2019-04-28T07:05:40.028Z,61.30
2019-04-28T07:10:45.673Z,58.80
2019-04-28T07:15:51.177Z,58.00
2019-04-28T07:21:21.717Z,56.40
2019-04-28T07:26:27.231Z,53.70
2019-04-28T07:31:32.949Z,50.50
2019-04-28T07:36:38.535Z,45.20
2019-04-28T07:41:43.999Z,39.60
2019-04-28T07:46:49.475Z,35.80
2019-04-28T07:52:06.427Z,31.10
2019-04-28T07:57:12.337Z,28.80
2019-04-28T08:02:17.762Z,30.20
2019-04-28T08:07:23.438Z,31.70
2019-04-28T08:12:29.270Z,32.40
2019-04-28T08:17:36.793Z,30.60
2019-04-28T08:22:42.487Z,26.70
2019-04-28T08:27:48.428Z,23.70
2019-04-28T08:33:05.288Z,23.20
2019-04-28T08:38:10.988Z,24.70
2019-04-28T08:43:16.449Z,26.10
2019-04-28T08:48:21.913Z,28.20
2019-04-28T08:53:27.477Z,29.60
2019-04-28T08:58:32.919Z,30.80
2019-04-28T09:03:38.393Z,31.00
2019-04-28T09:08:44.051Z,29.20
2019-04-28T09:13:49.589Z,26.90
2019-04-28T09:18:55.186Z,28.20
2019-04-28T09:24:00.715Z,31.20
2019-04-28T09:29:06.403Z,34.20
2019-04-28T09:34:11.978Z,36.00
2019-04-28T09:39:19.259Z,36.60
2019-04-28T09:44:25.010Z,37.50
2019-04-28T09:49:30.548Z,37.10
2019-04-28T09:54:36.086Z,36.80
2019-04-28T09:59:41.673Z,36.80
2019-04-28T10:04:47.211Z,36.10
2019-04-28T10:09:52.835Z,35.90
2019-04-28T10:14:58.297Z,35.20
2019-04-28T10:20:04.060Z,35.10
2019-04-28T10:25:09.851Z,35.30
2019-04-28T10:30:15.609Z,36.10
2019-04-28T10:35:21.275Z,36.20
2019-04-28T10:40:42.498Z,35.30
2019-04-28T10:45:49.460Z,34.30
2019-04-28T10:50:54.919Z,33.60
2019-04-28T10:56:00.422Z,33.40
2019-04-28T11:01:06.011Z,34.10
2019-04-28T11:06:12.733Z,34.20
2019-04-28T11:11:24.583Z,35.20
2019-04-28T11:16:33.739Z,35.50
2019-04-28T11:21:39.367Z,36.10
2019-04-28T11:26:46.888Z,36.10
2019-04-28T11:31:52.566Z,36.50
2019-04-28T11:36:58.228Z,37.30
2019-04-28T11:42:03.716Z,37.80
2019-04-28T11:47:10.909Z,38.30
2019-04-28T11:52:16.810Z,38.20
2019-04-28T11:57:22.408Z,38.10
2019-04-28T12:02:28.147Z,38.30
2019-04-28T12:07:33.671Z,38.30
2019-04-28T12:12:58.416Z,38.40
2019-04-28T12:18:38.116Z,38.90
2019-04-28T12:23:43.946Z,38.50
2019-04-28T12:28:49.540Z,38.10
2019-04-28T12:33:55.009Z,38.40
2019-04-28T12:39:00.553Z,38.60
2019-04-28T12:44:06.088Z,38.90
2019-04-28T12:49:29.098Z,38.80
2019-04-28T12:54:36.200Z,38.30
2019-04-28T12:59:46.802Z,38.50
2019-04-28T13:04:55.689Z,39.30
2019-04-28T13:10:01.167Z,40.30
2019-04-28T13:15:06.750Z,41.40
2019-04-28T13:20:12.186Z,42.80
2019-04-28T13:25:17.721Z,44.40
2019-04-28T13:30:23.149Z,46.90
2019-04-28T13:35:28.677Z,48.30
2019-04-28T13:40:35.915Z,49.90
2019-04-28T13:45:41.640Z,51.10
2019-04-28T13:50:48.959Z,51.10
2019-04-28T13:56:01.681Z,51.20
2019-04-28T14:01:24.476Z,50.80
2019-04-28T14:06:31.435Z,50.90
2019-04-28T14:11:36.940Z,50.60
2019-04-28T14:16:42.507Z,50.30
2019-04-28T14:21:48.053Z,49.40
2019-04-28T14:26:53.499Z,48.70
2019-04-28T14:31:59.019Z,49.40
2019-04-28T14:37:04.802Z,49.40
2019-04-28T14:42:10.233Z,48.90
2019-04-28T14:47:15.775Z,48.20
2019-04-28T14:52:21.234Z,47.60
2019-04-28T14:57:26.827Z,48.00
2019-04-28T15:02:53.968Z,49.00
2019-04-28T15:08:27.043Z,49.40
2019-04-28T15:13:32.526Z,49.90
2019-04-28T15:18:38.215Z,50.50
2019-04-28T15:23:43.721Z,50.90
2019-04-28T15:28:49.165Z,51.40
2019-04-28T15:33:54.664Z,52.10
2019-04-28T15:39:00.196Z,53.00
2019-04-28T15:44:05.864Z,53.60
2019-04-28T15:49:11.321Z,53.70
2019-04-28T15:54:16.976Z,53.80
2019-04-28T15:59:24.372Z,53.70
2019-04-28T16:04:29.839Z,53.70
2019-04-28T16:09:35.483Z,53.90
2019-04-28T16:14:40.997Z,54.10
2019-04-28T16:19:46.506Z,54.40
2019-04-28T16:24:52.021Z,54.60
2019-04-28T16:29:57.429Z,54.80
2019-04-28T16:35:02.891Z,54.70
2019-04-28T16:40:09.582Z,54.00
2019-04-28T16:45:18.483Z,53.30
2019-04-28T16:50:23.156Z,53.00
2019-04-28T16:55:36.012Z,53.00
2019-04-28T17:01:09.247Z,53.10
2019-04-28T17:06:14.968Z,53.00
2019-04-28T17:11:20.408Z,53.70
2019-04-28T17:16:25.856Z,55.00
2019-04-28T17:21:31.314Z,55.40
2019-04-28T17:26:36.743Z,55.60
2019-04-28T17:31:42.162Z,56.10
2019-04-28T17:36:47.726Z,56.90
2019-04-28T17:41:53.272Z,57.50
2019-04-28T17:46:58.842Z,58.40
2019-04-28T17:52:04.720Z,59.00
2019-04-28T17:57:10.167Z,59.40
2019-04-28T18:02:49.541Z,59.90
2019-04-28T18:07:59.943Z,60.40
2019-04-28T18:13:05.544Z,61.10
2019-04-28T18:18:17.881Z,61.70
2019-04-28T18:23:23.449Z,62.20
2019-04-28T18:28:28.868Z,62.80
2019-04-28T18:34:02.314Z,64.30
2019-04-28T18:39:25.997Z,64.30
2019-04-28T18:44:31.551Z,65.20
2019-04-28T18:49:37.052Z,65.70
2019-04-28T18:54:42.529Z,66.10
2019-04-28T18:59:48.219Z,66.80
2019-04-28T19:04:53.707Z,67.50
2019-04-28T19:10:05.178Z,68.30
2019-04-28T19:15:24.604Z,68.90
2019-04-28T19:20:30.084Z,69.40
2019-04-28T19:25:35.565Z,69.90
2019-04-28T19:30:41.492Z,70.50
2019-04-28T19:35:46.962Z,71.00
2019-04-28T19:40:52.392Z,71.40
2019-04-28T19:46:00.095Z,71.90
2019-04-28T19:51:05.727Z,72.40
2019-04-28T19:56:33.076Z,73.10
2019-04-28T20:01:38.624Z,73.70
2019-04-28T20:06:44.180Z,74.30
2019-04-28T20:11:49.767Z,75.00
2019-04-28T20:16:55.288Z,75.50
2019-04-28T20:22:00.788Z,76.10
2019-04-28T20:27:06.397Z,76.50
2019-04-28T20:32:11.802Z,77.60
2019-04-28T20:37:30.362Z,77.30
2019-04-28T20:43:02.057Z,77.50
2019-04-28T20:48:07.793Z,77.90
2019-04-28T20:53:13.256Z,78.20
2019-04-28T20:58:18.738Z,78.50
2019-04-28T21:03:24.165Z,79.00
2019-04-28T21:08:29.638Z,79.40
2019-04-28T21:13:35.079Z,79.70
2019-04-28T21:18:40.520Z,80.00
2019-04-28T21:23:45.928Z,80.10
2019-04-28T21:28:51.372Z,80.40
2019-04-28T21:33:56.841Z,80.30
2019-04-28T21:39:02.496Z,80.60
2019-04-28T21:44:17.172Z,80.80
2019-04-28T21:49:27.611Z,81.00
2019-04-28T21:54:33.085Z,81.60
2019-04-28T21:59:38.494Z,81.70
2019-04-28T22:04:46.759Z,81.70
2019-04-28T22:09:51.232Z,81.80
2019-04-28T22:14:56.777Z,82.00
2019-04-28T22:20:02.252Z,82.20
2019-04-28T22:25:12.927Z,82.30
2019-04-28T22:30:18.331Z,82.60
2019-04-28T22:35:23.765Z,82.70
2019-04-28T22:40:29.201Z,82.80
2019-04-28T22:45:34.634Z,83.00
2019-04-28T22:50:44.279Z,83.20
2019-04-28T22:55:58.701Z,83.30
2019-04-28T23:01:21.698Z,83.60
2019-04-28T23:06:27.366Z,83.70
2019-04-28T23:11:32.758Z,83.80
2019-04-28T23:16:38.220Z,83.90
2019-04-28T23:22:01.221Z,84.10
2019-04-28T23:27:06.755Z,84.20
2019-04-28T23:32:12.299Z,84.40
2019-04-28T23:37:17.774Z,84.60
2019-04-28T23:42:39.825Z,84.70
2019-04-28T23:47:45.273Z,84.80
2019-04-28T23:53:05.346Z,85.00
2019-04-28T23:58:10.801Z,85.50
